createdAt,value
2023-08-26T00:01:06.561Z,3.13
2023-08-26T00:03:33.460Z,3.15
2023-08-26T00:06:00.269Z,3.22
2023-08-26T00:08:27.092Z,2.40
2023-08-26T00:10:53.843Z,2.75
2023-08-26T00:13:20.655Z,2.95
2023-08-26T00:15:47.498Z,3.13
2023-08-26T00:18:14.495Z,3.45
2023-08-26T00:20:42.042Z,2.67
2023-08-26T00:23:09.595Z,2.80
2023-08-26T00:25:36.480Z,3.22
2023-08-26T00:28:04.283Z,2.40
2023-08-26T00:30:31.225Z,2.33
2023-08-26T00:32:58.094Z,2.60
2023-08-26T00:35:24.951Z,2.65
2023-08-26T00:37:52.639Z,3.00
2023-08-26T00:40:19.523Z,2.33
2023-08-26T00:42:46.377Z,2.30
2023-08-26T00:45:14.750Z,2.33
2023-08-26T00:47:41.650Z,2.30
2023-08-26T00:50:08.912Z,2.60
2023-08-26T00:52:36.090Z,3.22
2023-08-26T00:55:03.797Z,2.65
2023-08-26T00:57:30.759Z,3.13
2023-08-26T00:59:57.637Z,2.90
2023-08-26T01:02:24.555Z,2.80
2023-08-26T01:04:51.760Z,2.88
2023-08-26T01:07:18.636Z,3.25
2023-08-26T01:09:45.582Z,4.18
2023-08-26T01:12:32.549Z,3.47
2023-08-26T01:15:08.687Z,3.30
2023-08-26T01:17:36.368Z,3.38
2023-08-26T01:20:06.706Z,3.42
2023-08-26T01:22:35.337Z,3.40
2023-08-26T01:25:02.776Z,2.72
2023-08-26T01:27:29.758Z,3.22
2023-08-26T01:29:57.724Z,3.42
2023-08-26T01:32:34.548Z,3.40
2023-08-26T01:35:06.536Z,3.00
2023-08-26T01:37:34.962Z,3.20
2023-08-26T01:40:06.892Z,3.80
2023-08-26T01:42:38.003Z,2.80
2023-08-26T01:45:06.516Z,2.80
2023-08-26T01:47:33.696Z,2.95
2023-08-26T01:50:04.032Z,3.88
2023-08-26T01:52:30.832Z,3.83
2023-08-26T01:54:58.860Z,3.78
2023-08-26T01:57:25.686Z,3.60
2023-08-26T01:59:52.551Z,4.22
2023-08-26T02:02:19.329Z,3.45
2023-08-26T02:04:46.126Z,3.58
2023-08-26T02:07:13.859Z,3.97
2023-08-26T02:09:40.766Z,3.53
2023-08-26T02:12:08.173Z,3.85
2023-08-26T02:14:34.969Z,3.88
2023-08-26T02:17:01.741Z,3.70
2023-08-26T02:19:28.526Z,3.20
2023-08-26T02:21:55.856Z,3.53
2023-08-26T02:24:22.724Z,3.65
2023-08-26T02:26:49.587Z,4.35
2023-08-26T02:29:16.384Z,3.17
2023-08-26T02:31:43.231Z,3.55
2023-08-26T02:34:10.533Z,3.08
2023-08-26T02:36:37.292Z,2.92
2023-08-26T02:39:04.288Z,3.40
2023-08-26T02:41:31.122Z,3.53
2023-08-26T02:43:57.876Z,3.63
2023-08-26T02:46:24.693Z,3.03
2023-08-26T02:48:52.195Z,3.08
2023-08-26T02:51:18.961Z,2.65
2023-08-26T02:53:45.713Z,3.58
2023-08-26T02:56:12.446Z,3.03
2023-08-26T02:58:39.241Z,3.75
2023-08-26T03:01:07.760Z,4.25
2023-08-26T03:03:34.801Z,4.25
2023-08-26T03:06:01.727Z,3.10
2023-08-26T03:08:28.599Z,3.78
2023-08-26T03:11:04.295Z,3.40
2023-08-26T03:13:31.607Z,3.97
2023-08-26T03:15:59.065Z,3.40
2023-08-26T03:18:25.995Z,4.20
2023-08-26T03:20:52.807Z,3.70
2023-08-26T03:23:19.613Z,3.90
2023-08-26T03:25:46.951Z,3.03
2023-08-26T03:28:13.752Z,3.88
2023-08-26T03:30:40.581Z,4.15
2023-08-26T03:33:07.698Z,4.07
2023-08-26T03:35:39.713Z,3.33
2023-08-26T03:38:06.809Z,3.20
2023-08-26T03:40:33.659Z,3.53
2023-08-26T03:43:03.666Z,2.63
2023-08-26T03:45:30.938Z,3.28
2023-08-26T03:47:58.360Z,3.22
2023-08-26T03:50:25.356Z,3.63
2023-08-26T03:52:52.175Z,2.90
2023-08-26T03:55:18.963Z,2.70
2023-08-26T03:57:45.725Z,2.67
2023-08-26T04:00:13.220Z,2.45
2023-08-26T04:02:39.957Z,2.90
2023-08-26T04:05:07.146Z,2.95
2023-08-26T04:07:34.100Z,2.78
2023-08-26T04:10:00.864Z,3.08
2023-08-26T04:12:27.612Z,2.88
2023-08-26T04:14:54.521Z,3.05
2023-08-26T04:17:21.321Z,3.67
2023-08-26T04:19:54.119Z,3.20
2023-08-26T04:22:20.873Z,3.35
2023-08-26T04:24:47.710Z,2.42
2023-08-26T04:27:14.639Z,4.55
2023-08-26T04:29:41.625Z,4.40
2023-08-26T04:32:08.582Z,3.05
2023-08-26T04:34:35.460Z,2.33
2023-08-26T04:37:02.343Z,3.13
2023-08-26T04:39:29.157Z,3.33
2023-08-26T04:41:55.937Z,3.40
2023-08-26T04:44:22.775Z,2.53
2023-08-26T04:46:49.696Z,3.20
2023-08-26T04:49:16.911Z,4.10
2023-08-26T04:51:54.321Z,3.67
2023-08-26T04:54:21.302Z,4.28
2023-08-26T04:56:48.601Z,3.60
2023-08-26T04:59:15.706Z,4.20
2023-08-26T05:01:42.584Z,4.40
2023-08-26T05:04:09.397Z,4.60
2023-08-26T05:06:36.128Z,3.75
2023-08-26T05:09:02.934Z,3.85
2023-08-26T05:11:29.755Z,3.80
2023-08-26T05:13:56.528Z,4.10
2023-08-26T05:16:23.398Z,4.40
2023-08-26T05:18:52.646Z,3.50
2023-08-26T05:21:21.110Z,5.15
2023-08-26T05:23:47.937Z,4.78
2023-08-26T05:26:14.689Z,4.65
2023-08-26T05:28:41.478Z,4.20
2023-08-26T05:31:08.237Z,3.90
2023-08-26T05:33:35.332Z,5.20
2023-08-26T05:36:02.180Z,4.60
2023-08-26T05:38:29.009Z,4.10
2023-08-26T05:40:55.828Z,4.55
2023-08-26T05:43:22.711Z,4.72
2023-08-26T05:45:49.572Z,3.83
2023-08-26T05:48:16.346Z,4.00
2023-08-26T05:50:43.147Z,3.55
2023-08-26T05:53:09.968Z,4.00
2023-08-26T05:55:36.958Z,3.45
2023-08-26T05:58:03.842Z,3.58
2023-08-26T06:00:31.262Z,4.00
2023-08-26T06:02:58.172Z,3.13
2023-08-26T06:05:25.150Z,3.15
2023-08-26T06:07:52.995Z,4.47
2023-08-26T06:10:19.950Z,3.50
2023-08-26T06:12:46.879Z,2.75
2023-08-26T06:15:13.697Z,3.90
2023-08-26T06:17:51.813Z,2.97
2023-08-26T06:20:18.892Z,3.17
2023-08-26T06:22:47.121Z,3.78
2023-08-26T06:25:14.022Z,4.72
2023-08-26T06:27:42.022Z,3.92
2023-08-26T06:30:10.060Z,4.97
2023-08-26T06:32:37.018Z,4.72
2023-08-26T06:35:05.515Z,5.65
2023-08-26T06:37:32.448Z,4.20
2023-08-26T06:39:59.231Z,5.85
2023-08-26T06:42:26.476Z,4.13
2023-08-26T06:44:55.637Z,4.60
2023-08-26T06:47:22.612Z,4.30
2023-08-26T06:49:49.399Z,4.22
2023-08-26T06:52:16.213Z,4.22
2023-08-26T06:54:43.005Z,3.38
2023-08-26T06:57:09.791Z,4.70
2023-08-26T06:59:36.628Z,4.43
2023-08-26T07:02:04.017Z,4.18
2023-08-26T07:04:30.803Z,4.38
2023-08-26T07:06:57.625Z,4.28
2023-08-26T07:09:24.453Z,3.67
2023-08-26T07:11:51.287Z,2.60
2023-08-26T07:14:18.056Z,3.63
2023-08-26T07:16:44.841Z,3.35
2023-08-26T07:19:11.687Z,2.83
2023-08-26T07:21:38.498Z,4.07
2023-08-26T07:24:05.513Z,4.47
2023-08-26T07:26:32.260Z,4.85
2023-08-26T07:28:59.025Z,3.63
2023-08-26T07:31:25.871Z,3.20
2023-08-26T07:33:52.714Z,5.13
2023-08-26T07:36:19.537Z,3.83
2023-08-26T07:38:46.438Z,5.13
2023-08-26T07:41:13.273Z,6.40
2023-08-26T07:43:40.148Z,9.73
2023-08-26T07:48:37.514Z,9.35
2023-08-26T07:51:05.095Z,9.77
2023-08-26T07:53:31.849Z,8.48
2023-08-26T07:55:58.625Z,8.77
2023-08-26T07:58:25.463Z,6.78
2023-08-26T08:00:52.424Z,7.85
2023-08-26T08:03:19.395Z,8.48
2023-08-26T08:05:46.491Z,9.88
2023-08-26T08:08:13.317Z,8.05
2023-08-26T08:10:40.222Z,9.20
2023-08-26T08:13:06.992Z,7.25
2023-08-26T08:15:33.920Z,6.03
2023-08-26T08:18:00.841Z,6.90
2023-08-26T08:20:27.702Z,6.80
2023-08-26T08:22:54.513Z,5.30
2023-08-26T08:25:21.316Z,4.55
2023-08-26T08:27:48.129Z,4.10
2023-08-26T08:30:15.423Z,3.95
2023-08-26T08:32:42.179Z,4.05
2023-08-26T08:35:09.496Z,3.70
2023-08-26T08:37:36.689Z,3.55
2023-08-26T08:40:04.198Z,2.92
2023-08-26T08:42:33.598Z,3.90
2023-08-26T08:45:02.159Z,2.88
2023-08-26T08:47:29.154Z,3.50
2023-08-26T08:49:58.425Z,3.47
2023-08-26T08:52:27.432Z,2.72
2023-08-26T08:54:54.327Z,3.38
2023-08-26T08:57:29.979Z,3.33
2023-08-26T08:59:58.689Z,2.42
2023-08-26T09:02:29.030Z,2.70
2023-08-26T09:04:56.087Z,2.50
2023-08-26T09:07:24.844Z,2.22
2023-08-26T09:10:01.056Z,2.45
2023-08-26T09:12:31.092Z,2.88
2023-08-26T09:14:57.933Z,2.38
2023-08-26T09:17:24.744Z,2.30
2023-08-26T09:19:56.896Z,2.35
2023-08-26T09:22:27.478Z,2.40
2023-08-26T09:25:01.648Z,2.10
2023-08-26T09:27:29.244Z,2.30
2023-08-26T09:29:56.499Z,2.30
2023-08-26T09:32:36.659Z,2.28
2023-08-26T09:35:15.955Z,2.10
2023-08-26T09:37:57.044Z,1.90
2023-08-26T09:40:24.863Z,2.13
2023-08-26T09:42:52.909Z,2.00
2023-08-26T09:45:21.070Z,2.03
2023-08-26T09:47:52.728Z,2.15
2023-08-26T09:50:31.936Z,2.03
2023-08-26T09:52:59.191Z,2.50
2023-08-26T09:55:26.648Z,1.98
2023-08-26T09:57:54.275Z,2.00
2023-08-26T10:00:22.119Z,1.90
2023-08-26T10:02:50.944Z,1.80
2023-08-26T10:05:29.822Z,1.80
2023-08-26T10:07:57.381Z,1.90
2023-08-26T10:10:32.767Z,1.60
2023-08-26T10:13:06.766Z,1.50
2023-08-26T10:15:34.930Z,1.77
2023-08-26T10:18:12.909Z,1.73
2023-08-26T10:20:40.012Z,1.77
2023-08-26T10:23:07.590Z,1.90
2023-08-26T10:25:35.562Z,2.03
2023-08-26T10:28:04.947Z,2.10
2023-08-26T10:30:32.529Z,1.80
2023-08-26T10:33:01.211Z,1.70
2023-08-26T10:35:29.073Z,1.88
2023-08-26T10:38:29.921Z,2.08
2023-08-26T10:41:12.904Z,2.42
2023-08-26T10:43:53.084Z,2.42
2023-08-26T10:46:39.080Z,2.47
2023-08-26T10:49:06.436Z,2.75
2023-08-26T10:51:36.505Z,2.17
2023-08-26T10:54:05.101Z,2.10
2023-08-26T10:56:35.228Z,1.60
2023-08-26T10:59:07.334Z,1.13
2023-08-26T11:01:38.003Z,1.83
2023-08-26T11:04:06.247Z,1.45
2023-08-26T11:06:38.424Z,1.40
2023-08-26T11:09:06.457Z,1.50
2023-08-26T11:11:33.664Z,1.65
2023-08-26T11:14:00.550Z,1.77
2023-08-26T11:16:28.242Z,2.05
2023-08-26T11:18:57.714Z,1.52
2023-08-26T11:21:25.156Z,1.52
2023-08-26T11:23:55.767Z,1.20
2023-08-26T11:26:22.828Z,2.00
2023-08-26T11:28:50.227Z,1.60
2023-08-26T11:31:17.872Z,1.70
2023-08-26T11:33:45.366Z,1.77
2023-08-26T11:36:12.187Z,1.38
2023-08-26T11:38:39.173Z,1.40
2023-08-26T11:41:11.060Z,0.93
2023-08-26T11:43:38.349Z,0.98
2023-08-26T11:46:09.773Z,0.90
2023-08-26T11:48:38.145Z,0.85
2023-08-26T11:51:05.584Z,1.05
2023-08-26T11:53:32.740Z,1.10
2023-08-26T11:55:59.954Z,0.98
2023-08-26T11:58:29.446Z,1.02
2023-08-26T12:00:57.247Z,0.95
2023-08-26T12:03:24.437Z,1.15
2023-08-26T12:05:53.842Z,1.13
2023-08-26T12:08:22.622Z,1.38
2023-08-26T12:10:53.160Z,1.27
2023-08-26T12:13:20.611Z,1.10
2023-08-26T12:15:47.853Z,1.20
2023-08-26T12:18:16.319Z,1.20
2023-08-26T12:20:47.417Z,1.65
2023-08-26T12:23:17.704Z,1.77
2023-08-26T12:25:46.382Z,1.13
2023-08-26T12:28:26.166Z,1.02
2023-08-26T12:30:53.341Z,1.35
2023-08-26T12:33:25.200Z,1.00
2023-08-26T12:35:54.856Z,1.10
2023-08-26T12:38:22.304Z,1.20
2023-08-26T12:40:50.505Z,1.20
2023-08-26T12:43:19.699Z,0.85
2023-08-26T12:45:47.910Z,1.00
2023-08-26T12:48:21.897Z,1.30
2023-08-26T12:51:00.743Z,0.93
2023-08-26T12:53:27.739Z,1.00
2023-08-26T12:55:54.625Z,0.77
2023-08-26T12:58:28.031Z,1.10
2023-08-26T13:00:54.844Z,1.02
2023-08-26T13:03:21.888Z,1.20
2023-08-26T13:05:50.070Z,1.42
2023-08-26T13:08:17.037Z,1.60
2023-08-26T13:10:43.841Z,1.40
2023-08-26T13:13:10.689Z,1.35
2023-08-26T13:15:42.625Z,1.80
2023-08-26T13:18:10.689Z,1.73
2023-08-26T13:20:41.447Z,1.48
2023-08-26T13:23:10.503Z,1.25
2023-08-26T13:25:38.438Z,0.80
2023-08-26T13:28:07.126Z,1.23
2023-08-26T13:30:34.330Z,0.95
2023-08-26T13:33:01.302Z,1.35
2023-08-26T13:35:28.058Z,1.23
2023-08-26T13:37:55.071Z,1.38
2023-08-26T13:40:22.589Z,1.23
2023-08-26T13:42:51.540Z,1.40
2023-08-26T13:45:18.354Z,1.55
2023-08-26T13:47:45.116Z,1.48
2023-08-26T13:50:12.103Z,1.42
2023-08-26T13:52:38.867Z,1.83
2023-08-26T13:55:07.236Z,1.35
2023-08-26T13:57:35.833Z,1.30
2023-08-26T14:00:02.750Z,1.30
2023-08-26T14:02:29.778Z,1.52
2023-08-26T14:04:56.727Z,1.88
2023-08-26T14:07:23.541Z,1.50
2023-08-26T14:09:50.472Z,1.50
2023-08-26T14:12:17.284Z,1.10
2023-08-26T14:14:44.054Z,1.63
2023-08-26T14:17:10.913Z,1.30
2023-08-26T14:19:37.817Z,1.42
2023-08-26T14:22:05.088Z,0.98
2023-08-26T14:24:31.999Z,0.73
2023-08-26T14:26:58.794Z,1.23
2023-08-26T14:29:26.335Z,0.98
2023-08-26T14:31:53.237Z,1.08
2023-08-26T14:34:20.155Z,0.90
2023-08-26T14:36:46.945Z,1.10
2023-08-26T14:39:13.790Z,0.85
2023-08-26T14:41:40.631Z,1.20
2023-08-26T14:44:07.469Z,1.17
2023-08-26T14:46:34.423Z,1.00
2023-08-26T14:49:01.323Z,1.08
2023-08-26T14:51:28.137Z,1.10
2023-08-26T14:53:54.967Z,0.82
2023-08-26T14:56:21.858Z,1.17
2023-08-26T14:58:48.886Z,1.30
2023-08-26T15:01:15.741Z,1.05
2023-08-26T15:03:42.760Z,0.95
2023-08-26T15:06:09.674Z,1.30
2023-08-26T15:08:36.757Z,1.00
2023-08-26T15:11:03.640Z,1.02
2023-08-26T15:13:30.501Z,1.00
2023-08-26T15:15:57.315Z,1.27
2023-08-26T15:18:24.323Z,1.25
2023-08-26T15:20:51.522Z,1.02
2023-08-26T15:23:19.188Z,1.23
2023-08-26T15:25:47.110Z,0.90
2023-08-26T15:28:17.557Z,1.45
2023-08-26T15:30:52.491Z,0.90
2023-08-26T15:33:19.761Z,1.40
2023-08-26T15:35:52.876Z,1.30
2023-08-26T15:38:20.678Z,1.00
2023-08-26T15:41:02.008Z,1.27
2023-08-26T15:43:30.963Z,1.05
2023-08-26T15:45:57.855Z,1.05
2023-08-26T15:48:25.032Z,1.30
2023-08-26T15:50:52.465Z,1.13
2023-08-26T15:53:19.408Z,1.00
2023-08-26T15:55:46.713Z,0.98
2023-08-26T15:58:15.803Z,1.20
2023-08-26T16:00:43.438Z,1.40
2023-08-26T16:03:10.539Z,1.13
2023-08-26T16:05:39.277Z,1.30
2023-08-26T16:08:07.792Z,1.55
2023-08-26T16:10:35.402Z,2.08
2023-08-26T16:13:02.582Z,2.35
2023-08-26T16:15:29.653Z,10.82
2023-08-26T16:17:56.811Z,10.43
2023-08-26T16:20:23.766Z,9.20
2023-08-26T16:22:50.627Z,2.22
2023-08-26T16:25:18.469Z,1.65
2023-08-26T16:27:45.690Z,6.15
2023-08-26T16:30:13.933Z,3.30
2023-08-26T16:32:42.959Z,2.08
2023-08-26T16:35:10.601Z,1.77
2023-08-26T16:37:37.532Z,2.15
2023-08-26T16:40:04.848Z,2.40
2023-08-26T16:42:31.702Z,1.90
2023-08-26T16:44:58.536Z,1.90
2023-08-26T16:47:25.972Z,1.52
2023-08-26T16:49:52.913Z,1.65
2023-08-26T16:52:20.640Z,1.92
2023-08-26T16:54:49.598Z,1.83
2023-08-26T16:57:17.465Z,1.85
2023-08-26T16:59:44.543Z,1.90
2023-08-26T17:02:11.372Z,1.80
2023-08-26T17:04:38.411Z,2.22
2023-08-26T17:07:05.470Z,2.10
2023-08-26T17:09:32.576Z,1.70
2023-08-26T17:11:59.353Z,1.60
2023-08-26T17:14:27.429Z,2.00
2023-08-26T17:16:54.874Z,2.47
2023-08-26T17:19:22.145Z,1.33
2023-08-26T17:21:49.158Z,1.48
2023-08-26T17:24:16.129Z,1.50
2023-08-26T17:26:44.605Z,1.70
2023-08-26T17:29:11.833Z,1.38
2023-08-26T17:31:38.760Z,1.48
2023-08-26T17:34:05.628Z,2.15
2023-08-26T17:36:33.445Z,1.67
2023-08-26T17:39:00.558Z,1.45
2023-08-26T17:41:27.383Z,1.40
2023-08-26T17:43:54.281Z,1.60
2023-08-26T17:46:22.517Z,1.60
2023-08-26T17:48:50.787Z,1.60
2023-08-26T17:51:17.987Z,1.83
2023-08-26T17:53:45.712Z,1.65
2023-08-26T17:56:13.005Z,1.50
2023-08-26T17:58:40.464Z,1.10
2023-08-26T18:01:07.768Z,1.90
2023-08-26T18:03:34.633Z,1.20
2023-08-26T18:06:01.604Z,1.60
2023-08-26T18:08:28.629Z,1.52
2023-08-26T18:10:55.537Z,1.50
2023-08-26T18:13:23.449Z,1.55
2023-08-26T18:15:50.401Z,1.42
2023-08-26T18:18:17.366Z,1.50
2023-08-26T18:20:44.177Z,1.70
2023-08-26T18:23:11.084Z,1.60
2023-08-26T18:25:37.968Z,1.70
2023-08-26T18:28:05.030Z,1.35
2023-08-26T18:30:31.868Z,1.90
2023-08-26T18:32:59.123Z,1.50
2023-08-26T18:35:26.327Z,1.55
2023-08-26T18:37:53.171Z,1.67
2023-08-26T18:40:22.829Z,1.60
2023-08-26T18:42:51.241Z,1.60
2023-08-26T18:45:18.040Z,1.42
2023-08-26T18:47:44.996Z,1.70
2023-08-26T18:50:11.877Z,2.15
2023-08-26T18:52:38.723Z,1.60
2023-08-26T18:55:06.054Z,1.77
2023-08-26T18:57:32.869Z,1.80
2023-08-26T18:59:59.796Z,1.65
2023-08-26T19:02:26.639Z,2.00
2023-08-26T19:04:53.659Z,1.67
2023-08-26T19:07:20.544Z,2.08
2023-08-26T19:09:47.364Z,1.95
2023-08-26T19:12:14.273Z,2.05
2023-08-26T19:14:41.086Z,1.58
2023-08-26T19:17:07.933Z,1.98
2023-08-26T19:19:35.953Z,1.65
2023-08-26T19:22:04.851Z,1.80
2023-08-26T19:24:31.672Z,2.13
2023-08-26T19:26:59.596Z,1.85
2023-08-26T19:29:27.394Z,2.10
2023-08-26T19:31:54.210Z,2.00
2023-08-26T19:34:21.047Z,1.95
2023-08-26T19:36:47.814Z,1.98
2023-08-26T19:39:15.158Z,2.30
2023-08-26T19:41:42.275Z,2.70
2023-08-26T19:44:09.949Z,2.22
2023-08-26T19:46:37.045Z,2.25
2023-08-26T19:49:05.520Z,2.22
2023-08-26T19:51:32.820Z,2.05
2023-08-26T19:53:59.775Z,2.00
2023-08-26T19:56:26.879Z,2.20
2023-08-26T19:58:53.856Z,2.35
2023-08-26T20:01:21.057Z,2.22
2023-08-26T20:03:50.600Z,2.00
2023-08-26T20:06:17.831Z,2.28
2023-08-26T20:08:44.723Z,2.35
2023-08-26T20:11:11.700Z,2.22
2023-08-26T20:13:38.524Z,2.22
2023-08-26T20:16:05.459Z,2.50
2023-08-26T20:18:32.416Z,2.15
2023-08-26T20:20:59.923Z,1.98
2023-08-26T20:23:27.587Z,1.88
2023-08-26T20:26:03.954Z,2.30
2023-08-26T20:28:31.254Z,2.35
2023-08-26T20:31:04.348Z,1.83
2023-08-26T20:33:32.409Z,2.40
2023-08-26T20:36:04.126Z,3.17
2023-08-26T20:38:31.993Z,2.25
2023-08-26T20:41:05.185Z,2.45
2023-08-26T20:43:32.446Z,2.10
2023-08-26T20:46:00.009Z,2.30
2023-08-26T20:48:27.682Z,3.05
2023-08-26T20:50:54.772Z,2.28
2023-08-26T20:53:21.666Z,2.83
2023-08-26T20:55:49.676Z,2.45
2023-08-26T20:58:16.539Z,2.42
2023-08-26T21:00:43.361Z,2.22
2023-08-26T21:03:10.918Z,1.98
2023-08-26T21:05:38.092Z,2.53
2023-08-26T21:08:05.487Z,2.88
2023-08-26T21:10:32.940Z,2.63
2023-08-26T21:13:01.003Z,2.17
2023-08-26T21:15:28.154Z,2.70
2023-08-26T21:17:55.087Z,2.78
2023-08-26T21:20:22.893Z,2.40
2023-08-26T21:22:49.842Z,2.40
2023-08-26T21:25:17.983Z,2.42
2023-08-26T21:27:44.829Z,2.60
2023-08-26T21:30:12.099Z,2.50
2023-08-26T21:32:38.984Z,2.55
2023-08-26T21:35:06.352Z,2.70
2023-08-26T21:37:34.650Z,2.60
2023-08-26T21:40:01.431Z,2.45
2023-08-26T21:42:28.197Z,2.53
2023-08-26T21:44:55.107Z,3.00
2023-08-26T21:47:21.949Z,3.15
2023-08-26T21:49:48.848Z,3.38
2023-08-26T21:52:15.785Z,3.42
2023-08-26T21:54:43.062Z,3.25
2023-08-26T21:57:09.984Z,3.28
2023-08-26T21:59:36.765Z,3.20
2023-08-26T22:02:03.766Z,3.17
2023-08-26T22:04:30.734Z,3.35
2023-08-26T22:06:58.299Z,3.78
2023-08-26T22:09:25.102Z,4.20
2023-08-26T22:11:51.969Z,3.75
2023-08-26T22:14:18.793Z,3.60
2023-08-26T22:16:46.180Z,4.20
2023-08-26T22:19:13.516Z,4.07
2023-08-26T22:21:40.679Z,4.78
2023-08-26T22:24:07.792Z,3.78
2023-08-26T22:26:35.194Z,3.95
2023-08-26T22:29:02.035Z,4.05
2023-08-26T22:31:28.897Z,3.78
2023-08-26T22:33:55.706Z,4.00
2023-08-26T22:36:22.602Z,4.35
2023-08-26T22:38:50.497Z,4.28
2023-08-26T22:41:17.329Z,4.00
2023-08-26T22:43:45.326Z,3.90
2023-08-26T22:46:12.156Z,4.65
2023-08-26T22:48:39.083Z,4.35
2023-08-26T22:51:06.231Z,5.03
2023-08-26T22:53:33.022Z,4.63
2023-08-26T22:56:06.531Z,4.32
2023-08-26T22:58:33.862Z,4.93
2023-08-26T23:01:01.968Z,4.25
2023-08-26T23:03:29.013Z,4.47
2023-08-26T23:06:04.004Z,4.22
2023-08-26T23:08:30.931Z,4.10
2023-08-26T23:10:59.787Z,4.43
2023-08-26T23:13:26.546Z,4.53
2023-08-26T23:15:53.441Z,4.57
2023-08-26T23:18:20.448Z,4.65
2023-08-26T23:20:48.173Z,4.88
2023-08-26T23:23:15.270Z,4.63
2023-08-26T23:25:42.136Z,4.13
2023-08-26T23:28:08.944Z,3.97
2023-08-26T23:30:35.898Z,4.03
2023-08-26T23:33:03.155Z,4.43
2023-08-26T23:35:30.111Z,4.55
2023-08-26T23:37:56.910Z,5.00
2023-08-26T23:40:23.700Z,4.68
2023-08-26T23:42:50.460Z,4.78
2023-08-26T23:45:17.804Z,5.53
2023-08-26T23:47:44.743Z,4.82
2023-08-26T23:50:11.545Z,5.18
2023-08-26T23:52:38.487Z,5.03
2023-08-26T23:55:06.151Z,5.35
2023-08-26T23:57:34.448Z,5.80
